sensor_id;sensor_type;location;lat;lon;timestamp;P1;durP1;ratioP1;P2;durP2;ratioP2
7665;SDS011;3875;46.562;4.898;2023-01-20T00:00:10;12.37;;;7.57;;
7665;SDS011;3875;46.562;4.898;2023-01-20T00:02:37;12.40;;;8.20;;
7665;SDS011;3875;46.562;4.898;2023-01-20T00:05:03;17.60;;;9.83;;
7665;SDS011;3875;46.562;4.898;2023-01-20T00:07:29;14.10;;;8.53;;
7665;SDS011;3875;46.562;4.898;2023-01-20T00:09:54;11.70;;;8.40;;
7665;SDS011;3875;46.562;4.898;2023-01-20T00:12:20;17.80;;;8.27;;
7665;SDS011;3875;46.562;4.898;2023-01-20T00:14:46;15.83;;;8.87;;
7665;SDS011;3875;46.562;4.898;2023-01-20T00:17:11;13.90;;;9.07;;
7665;SDS011;3875;46.562;4.898;2023-01-20T00:19:37;11.77;;;7.40;;
7665;SDS011;3875;46.562;4.898;2023-01-20T00:22:03;16.57;;;7.70;;
7665;SDS011;3875;46.562;4.898;2023-01-20T00:24:28;16.83;;;7.80;;
7665;SDS011;3875;46.562;4.898;2023-01-20T00:26:54;13.47;;;8.20;;
7665;SDS011;3875;46.562;4.898;2023-01-20T00:29:19;13.80;;;8.50;;
7665;SDS011;3875;46.562;4.898;2023-01-20T00:31:45;14.77;;;8.33;;
7665;SDS011;3875;46.562;4.898;2023-01-20T00:34:11;11.10;;;8.07;;
7665;SDS011;3875;46.562;4.898;2023-01-20T00:36:36;14.07;;;8.13;;
7665;SDS011;3875;46.562;4.898;2023-01-20T00:39:02;11.17;;;7.83;;
7665;SDS011;3875;46.562;4.898;2023-01-20T00:41:29;13.77;;;8.97;;
7665;SDS011;3875;46.562;4.898;2023-01-20T00:43:55;11.10;;;7.60;;
7665;SDS011;3875;46.562;4.898;2023-01-20T00:46:20;11.73;;;7.53;;
7665;SDS011;3875;46.562;4.898;2023-01-20T00:48:47;12.47;;;7.97;;
7665;SDS011;3875;46.562;4.898;2023-01-20T00:51:13;11.07;;;7.93;;
7665;SDS011;3875;46.562;4.898;2023-01-20T00:53:39;12.07;;;8.17;;
7665;SDS011;3875;46.562;4.898;2023-01-20T00:56:05;10.87;;;8.17;;
7665;SDS011;3875;46.562;4.898;2023-01-20T00:58:31;13.23;;;7.70;;
7665;SDS011;3875;46.562;4.898;2023-01-20T01:00:57;15.93;;;9.60;;
7665;SDS011;3875;46.562;4.898;2023-01-20T01:03:23;15.57;;;9.40;;
7665;SDS011;3875;46.562;4.898;2023-01-20T01:05:49;14.10;;;9.17;;
7665;SDS011;3875;46.562;4.898;2023-01-20T01:08:15;15.80;;;8.50;;
7665;SDS011;3875;46.562;4.898;2023-01-20T01:10:41;15.67;;;8.77;;
7665;SDS011;3875;46.562;4.898;2023-01-20T01:13:06;11.53;;;8.70;;
7665;SDS011;3875;46.562;4.898;2023-01-20T01:15:32;14.27;;;9.17;;
7665;SDS011;3875;46.562;4.898;2023-01-20T01:17:58;14.40;;;9.10;;
7665;SDS011;3875;46.562;4.898;2023-01-20T01:20:25;15.93;;;9.37;;
7665;SDS011;3875;46.562;4.898;2023-01-20T01:22:51;14.07;;;9.27;;
7665;SDS011;3875;46.562;4.898;2023-01-20T01:25:17;15.23;;;10.27;;
7665;SDS011;3875;46.562;4.898;2023-01-20T01:27:43;16.00;;;9.53;;
7665;SDS011;3875;46.562;4.898;2023-01-20T01:30:09;15.27;;;9.57;;
7665;SDS011;3875;46.562;4.898;2023-01-20T01:32:35;17.37;;;9.53;;
7665;SDS011;3875;46.562;4.898;2023-01-20T01:35:01;13.10;;;9.13;;
7665;SDS011;3875;46.562;4.898;2023-01-20T01:37:27;12.23;;;9.10;;
7665;SDS011;3875;46.562;4.898;2023-01-20T01:39:53;11.50;;;8.57;;
7665;SDS011;3875;46.562;4.898;2023-01-20T01:42:21;11.43;;;8.53;;
7665;SDS011;3875;46.562;4.898;2023-01-20T01:47:40;14.97;;;10.57;;
7665;SDS011;3875;46.562;4.898;2023-01-20T01:51:05;14.13;;;9.80;;
7665;SDS011;3875;46.562;4.898;2023-01-20T01:53:39;11.97;;;8.70;;
7665;SDS011;3875;46.562;4.898;2023-01-20T01:56:08;15.90;;;9.43;;
7665;SDS011;3875;46.562;4.898;2023-01-20T01:58:36;13.20;;;8.27;;
7665;SDS011;3875;46.562;4.898;2023-01-20T02:01:04;15.60;;;10.47;;
7665;SDS011;3875;46.562;4.898;2023-01-20T02:03:33;12.57;;;9.13;;
7665;SDS011;3875;46.562;4.898;2023-01-20T02:06:08;14.77;;;9.73;;
7665;SDS011;3875;46.562;4.898;2023-01-20T02:08:35;20.83;;;10.83;;
7665;SDS011;3875;46.562;4.898;2023-01-20T02:11:01;14.77;;;9.63;;
7665;SDS011;3875;46.562;4.898;2023-01-20T02:13:26;17.53;;;10.97;;
7665;SDS011;3875;46.562;4.898;2023-01-20T02:16:16;13.87;;;10.07;;
7665;SDS011;3875;46.562;4.898;2023-01-20T02:18:54;14.57;;;9.43;;
7665;SDS011;3875;46.562;4.898;2023-01-20T02:27:45;19.83;;;10.67;;
7665;SDS011;3875;46.562;4.898;2023-01-20T02:30:45;12.87;;;8.93;;
7665;SDS011;3875;46.562;4.898;2023-01-20T02:33:27;13.43;;;9.10;;
7665;SDS011;3875;46.562;4.898;2023-01-20T02:41:06;16.07;;;10.67;;
7665;SDS011;3875;46.562;4.898;2023-01-20T02:46:32;15.50;;;9.90;;
7665;SDS011;3875;46.562;4.898;2023-01-20T02:49:09;16.13;;;11.10;;
7665;SDS011;3875;46.562;4.898;2023-01-20T02:51:39;16.77;;;10.13;;
7665;SDS011;3875;46.562;4.898;2023-01-20T02:54:19;14.90;;;10.63;;
7665;SDS011;3875;46.562;4.898;2023-01-20T02:56:47;17.37;;;11.57;;
7665;SDS011;3875;46.562;4.898;2023-01-20T02:59:16;16.60;;;9.87;;
7665;SDS011;3875;46.562;4.898;2023-01-20T03:01:55;19.67;;;11.27;;
7665;SDS011;3875;46.562;4.898;2023-01-20T03:04:29;18.27;;;11.10;;
7665;SDS011;3875;46.562;4.898;2023-01-20T03:07:00;16.90;;;10.23;;
7665;SDS011;3875;46.562;4.898;2023-01-20T03:09:32;17.97;;;10.80;;
7665;SDS011;3875;46.562;4.898;2023-01-20T03:12:15;16.23;;;10.70;;
7665;SDS011;3875;46.562;4.898;2023-01-20T03:14:47;18.33;;;10.77;;
7665;SDS011;3875;46.562;4.898;2023-01-20T03:17:15;13.67;;;8.77;;
7665;SDS011;3875;46.562;4.898;2023-01-20T03:19:42;13.57;;;9.93;;
7665;SDS011;3875;46.562;4.898;2023-01-20T03:22:08;16.17;;;10.27;;
7665;SDS011;3875;46.562;4.898;2023-01-20T03:24:33;14.53;;;9.93;;
7665;SDS011;3875;46.562;4.898;2023-01-20T03:27:02;17.93;;;10.33;;
7665;SDS011;3875;46.562;4.898;2023-01-20T03:29:28;14.97;;;9.07;;
7665;SDS011;3875;46.562;4.898;2023-01-20T03:31:55;16.70;;;9.33;;
7665;SDS011;3875;46.562;4.898;2023-01-20T03:34:24;14.17;;;9.33;;
7665;SDS011;3875;46.562;4.898;2023-01-20T03:36:52;14.77;;;10.07;;
7665;SDS011;3875;46.562;4.898;2023-01-20T03:39:19;15.60;;;10.20;;
7665;SDS011;3875;46.562;4.898;2023-01-20T03:41:50;16.97;;;10.73;;
7665;SDS011;3875;46.562;4.898;2023-01-20T03:52:52;11.40;;;8.00;;
7665;SDS011;3875;46.562;4.898;2023-01-20T03:55:23;17.33;;;10.43;;
7665;SDS011;3875;46.562;4.898;2023-01-20T03:58:30;15.07;;;10.33;;
7665;SDS011;3875;46.562;4.898;2023-01-20T04:00:53;15.67;;;9.77;;
7665;SDS011;3875;46.562;4.898;2023-01-20T04:03:25;17.37;;;10.23;;
7665;SDS011;3875;46.562;4.898;2023-01-20T04:05:58;16.23;;;9.43;;
7665;SDS011;3875;46.562;4.898;2023-01-20T04:08:27;13.83;;;10.03;;
7665;SDS011;3875;46.562;4.898;2023-01-20T04:10:57;17.20;;;10.60;;
7665;SDS011;3875;46.562;4.898;2023-01-20T04:13:25;24.43;;;10.73;;
7665;SDS011;3875;46.562;4.898;2023-01-20T04:15:50;17.27;;;10.87;;
7665;SDS011;3875;46.562;4.898;2023-01-20T04:18:17;16.20;;;10.50;;
7665;SDS011;3875;46.562;4.898;2023-01-20T04:20:48;17.47;;;9.80;;
7665;SDS011;3875;46.562;4.898;2023-01-20T04:23:23;18.40;;;10.47;;
7665;SDS011;3875;46.562;4.898;2023-01-20T04:26:09;15.57;;;9.70;;
7665;SDS011;3875;46.562;4.898;2023-01-20T04:28:35;18.00;;;10.97;;
7665;SDS011;3875;46.562;4.898;2023-01-20T04:31:01;14.93;;;9.77;;
7665;SDS011;3875;46.562;4.898;2023-01-20T04:33:26;15.33;;;9.90;;
7665;SDS011;3875;46.562;4.898;2023-01-20T04:35:52;17.73;;;10.70;;
7665;SDS011;3875;46.562;4.898;2023-01-20T04:38:17;15.77;;;9.87;;
7665;SDS011;3875;46.562;4.898;2023-01-20T04:40:43;13.93;;;9.80;;
7665;SDS011;3875;46.562;4.898;2023-01-20T04:43:09;16.10;;;9.90;;
7665;SDS011;3875;46.562;4.898;2023-01-20T04:45:36;17.73;;;10.70;;
7665;SDS011;3875;46.562;4.898;2023-01-20T04:48:05;15.53;;;9.43;;
7665;SDS011;3875;46.562;4.898;2023-01-20T04:50:32;14.90;;;9.80;;
7665;SDS011;3875;46.562;4.898;2023-01-20T04:52:57;15.30;;;9.60;;
7665;SDS011;3875;46.562;4.898;2023-01-20T04:55:23;16.93;;;11.17;;
7665;SDS011;3875;46.562;4.898;2023-01-20T04:57:50;10.17;;;7.27;;
7665;SDS011;3875;46.562;4.898;2023-01-20T05:00:16;14.30;;;8.83;;
7665;SDS011;3875;46.562;4.898;2023-01-20T05:02:44;15.53;;;9.97;;
7665;SDS011;3875;46.562;4.898;2023-01-20T05:05:11;14.93;;;10.13;;
7665;SDS011;3875;46.562;4.898;2023-01-20T05:07:36;15.73;;;9.70;;
7665;SDS011;3875;46.562;4.898;2023-01-20T05:10:02;15.23;;;9.00;;
7665;SDS011;3875;46.562;4.898;2023-01-20T05:12:28;16.40;;;10.27;;
7665;SDS011;3875;46.562;4.898;2023-01-20T05:14:54;13.43;;;9.37;;
7665;SDS011;3875;46.562;4.898;2023-01-20T05:17:19;16.77;;;10.47;;
7665;SDS011;3875;46.562;4.898;2023-01-20T05:19:45;17.47;;;11.30;;
7665;SDS011;3875;46.562;4.898;2023-01-20T05:22:10;15.57;;;10.30;;
7665;SDS011;3875;46.562;4.898;2023-01-20T05:24:36;17.10;;;9.83;;
7665;SDS011;3875;46.562;4.898;2023-01-20T05:27:02;16.37;;;10.03;;
7665;SDS011;3875;46.562;4.898;2023-01-20T05:29:28;15.23;;;9.90;;
7665;SDS011;3875;46.562;4.898;2023-01-20T05:31:54;12.80;;;8.37;;
7665;SDS011;3875;46.562;4.898;2023-01-20T05:34:20;14.43;;;9.43;;
7665;SDS011;3875;46.562;4.898;2023-01-20T05:36:49;14.83;;;10.53;;
7665;SDS011;3875;46.562;4.898;2023-01-20T05:39:16;18.70;;;10.00;;
7665;SDS011;3875;46.562;4.898;2023-01-20T05:41:42;13.07;;;10.10;;
7665;SDS011;3875;46.562;4.898;2023-01-20T05:44:10;14.90;;;10.77;;
7665;SDS011;3875;46.562;4.898;2023-01-20T05:46:35;13.33;;;9.00;;
7665;SDS011;3875;46.562;4.898;2023-01-20T05:49:01;16.40;;;10.70;;
7665;SDS011;3875;46.562;4.898;2023-01-20T05:51:27;18.97;;;10.70;;
7665;SDS011;3875;46.562;4.898;2023-01-20T05:53:52;12.30;;;7.23;;
7665;SDS011;3875;46.562;4.898;2023-01-20T05:56:18;11.07;;;7.70;;
7665;SDS011;3875;46.562;4.898;2023-01-20T05:58:44;15.63;;;10.27;;
7665;SDS011;3875;46.562;4.898;2023-01-20T06:01:10;13.20;;;9.33;;
7665;SDS011;3875;46.562;4.898;2023-01-20T06:03:37;12.90;;;9.20;;
7665;SDS011;3875;46.562;4.898;2023-01-20T06:06:04;17.33;;;10.77;;
7665;SDS011;3875;46.562;4.898;2023-01-20T06:08:32;17.93;;;10.77;;
7665;SDS011;3875;46.562;4.898;2023-01-20T06:10:58;17.67;;;10.57;;
7665;SDS011;3875;46.562;4.898;2023-01-20T06:13:24;13.20;;;10.10;;
7665;SDS011;3875;46.562;4.898;2023-01-20T06:15:53;19.37;;;12.03;;
7665;SDS011;3875;46.562;4.898;2023-01-20T06:18:20;15.00;;;9.70;;
7665;SDS011;3875;46.562;4.898;2023-01-20T06:20:47;14.43;;;9.10;;
7665;SDS011;3875;46.562;4.898;2023-01-20T06:23:12;18.70;;;9.87;;
7665;SDS011;3875;46.562;4.898;2023-01-20T06:25:38;13.73;;;9.73;;
7665;SDS011;3875;46.562;4.898;2023-01-20T06:28:06;12.87;;;9.57;;
7665;SDS011;3875;46.562;4.898;2023-01-20T06:30:31;12.43;;;8.60;;
7665;SDS011;3875;46.562;4.898;2023-01-20T06:32:57;14.57;;;9.23;;
7665;SDS011;3875;46.562;4.898;2023-01-20T06:35:24;12.20;;;8.60;;
7665;SDS011;3875;46.562;4.898;2023-01-20T06:37:50;14.87;;;9.70;;
7665;SDS011;3875;46.562;4.898;2023-01-20T06:40:16;13.20;;;9.50;;
7665;SDS011;3875;46.562;4.898;2023-01-20T06:42:42;16.10;;;9.53;;
7665;SDS011;3875;46.562;4.898;2023-01-20T06:45:07;18.47;;;10.33;;
7665;SDS011;3875;46.562;4.898;2023-01-20T06:47:34;20.47;;;11.50;;
7665;SDS011;3875;46.562;4.898;2023-01-20T06:50:00;16.97;;;9.97;;
7665;SDS011;3875;46.562;4.898;2023-01-20T06:52:25;23.37;;;11.40;;
7665;SDS011;3875;46.562;4.898;2023-01-20T06:54:51;23.83;;;12.70;;
7665;SDS011;3875;46.562;4.898;2023-01-20T06:57:17;32.43;;;13.87;;
7665;SDS011;3875;46.562;4.898;2023-01-20T06:59:43;31.63;;;14.37;;
7665;SDS011;3875;46.562;4.898;2023-01-20T07:02:12;15.90;;;9.33;;
7665;SDS011;3875;46.562;4.898;2023-01-20T07:04:38;12.23;;;8.77;;
7665;SDS011;3875;46.562;4.898;2023-01-20T07:07:03;12.00;;;8.23;;
7665;SDS011;3875;46.562;4.898;2023-01-20T07:09:29;14.73;;;9.10;;
7665;SDS011;3875;46.562;4.898;2023-01-20T07:11:55;15.03;;;9.43;;
7665;SDS011;3875;46.562;4.898;2023-01-20T07:14:21;19.40;;;10.60;;
7665;SDS011;3875;46.562;4.898;2023-01-20T07:16:46;13.97;;;9.77;;
7665;SDS011;3875;46.562;4.898;2023-01-20T07:19:12;20.07;;;10.57;;
7665;SDS011;3875;46.562;4.898;2023-01-20T07:21:38;18.47;;;10.53;;
7665;SDS011;3875;46.562;4.898;2023-01-20T07:24:04;18.10;;;10.37;;
7665;SDS011;3875;46.562;4.898;2023-01-20T07:26:30;23.47;;;11.53;;
7665;SDS011;3875;46.562;4.898;2023-01-20T07:28:56;19.93;;;11.97;;
7665;SDS011;3875;46.562;4.898;2023-01-20T07:31:23;19.10;;;11.67;;
7665;SDS011;3875;46.562;4.898;2023-01-20T07:33:52;21.43;;;12.80;;
7665;SDS011;3875;46.562;4.898;2023-01-20T07:36:19;17.67;;;10.77;;
7665;SDS011;3875;46.562;4.898;2023-01-20T07:38:51;23.03;;;11.70;;
7665;SDS011;3875;46.562;4.898;2023-01-20T07:41:18;16.87;;;10.47;;
7665;SDS011;3875;46.562;4.898;2023-01-20T07:43:45;19.63;;;11.70;;
7665;SDS011;3875;46.562;4.898;2023-01-20T07:46:12;20.83;;;11.00;;
7665;SDS011;3875;46.562;4.898;2023-01-20T07:48:38;16.57;;;11.13;;
7665;SDS011;3875;46.562;4.898;2023-01-20T07:51:06;16.67;;;11.03;;
7665;SDS011;3875;46.562;4.898;2023-01-20T07:53:34;20.80;;;12.53;;
7665;SDS011;3875;46.562;4.898;2023-01-20T07:56:06;18.53;;;11.63;;
7665;SDS011;3875;46.562;4.898;2023-01-20T07:58:34;23.07;;;12.70;;
7665;SDS011;3875;46.562;4.898;2023-01-20T08:01:14;33.97;;;18.37;;
7665;SDS011;3875;46.562;4.898;2023-01-20T08:03:41;23.97;;;14.47;;
7665;SDS011;3875;46.562;4.898;2023-01-20T08:06:09;20.73;;;12.90;;
7665;SDS011;3875;46.562;4.898;2023-01-20T08:08:36;20.93;;;13.00;;
7665;SDS011;3875;46.562;4.898;2023-01-20T08:11:03;18.03;;;10.63;;
7665;SDS011;3875;46.562;4.898;2023-01-20T08:13:30;18.57;;;11.00;;
7665;SDS011;3875;46.562;4.898;2023-01-20T08:15:59;17.50;;;10.70;;
7665;SDS011;3875;46.562;4.898;2023-01-20T08:18:25;21.43;;;11.50;;
7665;SDS011;3875;46.562;4.898;2023-01-20T08:20:51;17.33;;;10.40;;
7665;SDS011;3875;46.562;4.898;2023-01-20T08:23:17;18.10;;;10.33;;
7665;SDS011;3875;46.562;4.898;2023-01-20T08:25:43;16.07;;;10.73;;
7665;SDS011;3875;46.562;4.898;2023-01-20T08:28:08;17.70;;;10.80;;
7665;SDS011;3875;46.562;4.898;2023-01-20T08:30:34;16.13;;;9.20;;
7665;SDS011;3875;46.562;4.898;2023-01-20T08:33:00;21.93;;;11.13;;
7665;SDS011;3875;46.562;4.898;2023-01-20T08:35:26;18.93;;;9.80;;
7665;SDS011;3875;46.562;4.898;2023-01-20T08:37:52;14.87;;;8.40;;
7665;SDS011;3875;46.562;4.898;2023-01-20T08:40:17;14.13;;;8.43;;
7665;SDS011;3875;46.562;4.898;2023-01-20T08:42:43;12.60;;;6.90;;
7665;SDS011;3875;46.562;4.898;2023-01-20T08:45:09;4.47;;;3.63;;
7665;SDS011;3875;46.562;4.898;2023-01-20T08:47:36;5.17;;;3.87;;
7665;SDS011;3875;46.562;4.898;2023-01-20T08:50:11;12.13;;;6.07;;
7665;SDS011;3875;46.562;4.898;2023-01-20T08:52:38;2.37;;;2.13;;
7665;SDS011;3875;46.562;4.898;2023-01-20T08:55:05;5.73;;;4.20;;
7665;SDS011;3875;46.562;4.898;2023-01-20T08:57:31;6.30;;;3.93;;
7665;SDS011;3875;46.562;4.898;2023-01-20T08:59:57;6.80;;;4.97;;
7665;SDS011;3875;46.562;4.898;2023-01-20T09:02:22;6.80;;;4.87;;
7665;SDS011;3875;46.562;4.898;2023-01-20T09:04:48;3.90;;;3.30;;
7665;SDS011;3875;46.562;4.898;2023-01-20T09:07:16;3.80;;;2.40;;
7665;SDS011;3875;46.562;4.898;2023-01-20T09:09:42;2.33;;;2.13;;
7665;SDS011;3875;46.562;4.898;2023-01-20T09:12:08;2.00;;;1.80;;
7665;SDS011;3875;46.562;4.898;2023-01-20T09:14:34;6.30;;;2.83;;
7665;SDS011;3875;46.562;4.898;2023-01-20T09:17:00;9.33;;;5.03;;
7665;SDS011;3875;46.562;4.898;2023-01-20T09:19:27;3.80;;;3.10;;
7665;SDS011;3875;46.562;4.898;2023-01-20T09:21:53;4.83;;;3.50;;
7665;SDS011;3875;46.562;4.898;2023-01-20T09:24:19;5.80;;;3.63;;
7665;SDS011;3875;46.562;4.898;2023-01-20T09:26:48;11.93;;;5.83;;
7665;SDS011;3875;46.562;4.898;2023-01-20T09:29:16;3.57;;;3.07;;
7665;SDS011;3875;46.562;4.898;2023-01-20T09:31:44;4.20;;;2.63;;
7665;SDS011;3875;46.562;4.898;2023-01-20T09:34:18;11.20;;;5.13;;
7665;SDS011;3875;46.562;4.898;2023-01-20T09:36:59;5.63;;;3.77;;
7665;SDS011;3875;46.562;4.898;2023-01-20T09:39:46;10.53;;;4.03;;
7665;SDS011;3875;46.562;4.898;2023-01-20T09:42:39;6.73;;;5.23;;
7665;SDS011;3875;46.562;4.898;2023-01-20T09:45:57;9.07;;;5.67;;
7665;SDS011;3875;46.562;4.898;2023-01-20T09:48:33;7.93;;;4.83;;
7665;SDS011;3875;46.562;4.898;2023-01-20T09:52:01;13.20;;;7.93;;
7665;SDS011;3875;46.562;4.898;2023-01-20T09:54:49;10.47;;;6.97;;
7665;SDS011;3875;46.562;4.898;2023-01-20T09:57:20;14.67;;;7.17;;
7665;SDS011;3875;46.562;4.898;2023-01-20T09:59:54;8.13;;;5.53;;
7665;SDS011;3875;46.562;4.898;2023-01-20T10:02:27;7.93;;;5.30;;
7665;SDS011;3875;46.562;4.898;2023-01-20T10:04:58;2.47;;;2.27;;
7665;SDS011;3875;46.562;4.898;2023-01-20T10:10:32;7.53;;;5.60;;
7665;SDS011;3875;46.562;4.898;2023-01-20T10:15:43;7.70;;;5.83;;
7665;SDS011;3875;46.562;4.898;2023-01-20T10:18:18;4.43;;;3.57;;
7665;SDS011;3875;46.562;4.898;2023-01-20T10:20:57;10.00;;;5.60;;
7665;SDS011;3875;46.562;4.898;2023-01-20T10:23:32;7.33;;;3.50;;
7665;SDS011;3875;46.562;4.898;2023-01-20T10:28:59;6.47;;;5.47;;
7665;SDS011;3875;46.562;4.898;2023-01-20T10:31:28;4.97;;;2.67;;
7665;SDS011;3875;46.562;4.898;2023-01-20T10:34:02;10.43;;;5.03;;
7665;SDS011;3875;46.562;4.898;2023-01-20T10:36:35;6.43;;;4.33;;
7665;SDS011;3875;46.562;4.898;2023-01-20T10:39:03;5.87;;;4.10;;
7665;SDS011;3875;46.562;4.898;2023-01-20T10:41:50;5.80;;;4.43;;
7665;SDS011;3875;46.562;4.898;2023-01-20T10:44:19;5.57;;;3.53;;
7665;SDS011;3875;46.562;4.898;2023-01-20T10:47:05;5.93;;;4.73;;
7665;SDS011;3875;46.562;4.898;2023-01-20T10:55:45;8.00;;;3.80;;
7665;SDS011;3875;46.562;4.898;2023-01-20T10:58:27;3.77;;;3.10;;
7665;SDS011;3875;46.562;4.898;2023-01-20T11:00:55;5.50;;;3.47;;
7665;SDS011;3875;46.562;4.898;2023-01-20T11:03:25;5.60;;;3.80;;
7665;SDS011;3875;46.562;4.898;2023-01-20T11:05:54;4.77;;;4.07;;
7665;SDS011;3875;46.562;4.898;2023-01-20T11:08:21;4.23;;;3.70;;
7665;SDS011;3875;46.562;4.898;2023-01-20T11:10:57;7.40;;;4.03;;
7665;SDS011;3875;46.562;4.898;2023-01-20T11:13:25;6.43;;;3.67;;
7665;SDS011;3875;46.562;4.898;2023-01-20T11:16:01;4.30;;;3.57;;
7665;SDS011;3875;46.562;4.898;2023-01-20T11:18:31;5.57;;;4.20;;
7665;SDS011;3875;46.562;4.898;2023-01-20T11:21:02;4.73;;;3.23;;
7665;SDS011;3875;46.562;4.898;2023-01-20T11:23:48;4.13;;;3.47;;
7665;SDS011;3875;46.562;4.898;2023-01-20T11:31:37;4.77;;;3.60;;
7665;SDS011;3875;46.562;4.898;2023-01-20T11:39:31;4.10;;;3.37;;
7665;SDS011;3875;46.562;4.898;2023-01-20T11:42:18;4.10;;;3.70;;
7665;SDS011;3875;46.562;4.898;2023-01-20T11:44:49;5.53;;;4.13;;
7665;SDS011;3875;46.562;4.898;2023-01-20T11:47:21;6.33;;;4.30;;
7665;SDS011;3875;46.562;4.898;2023-01-20T11:52:33;6.37;;;3.60;;
7665;SDS011;3875;46.562;4.898;2023-01-20T11:55:14;4.20;;;3.17;;
7665;SDS011;3875;46.562;4.898;2023-01-20T12:02:43;3.37;;;2.80;;
7665;SDS011;3875;46.562;4.898;2023-01-20T12:05:42;4.87;;;2.70;;
7665;SDS011;3875;46.562;4.898;2023-01-20T12:08:16;5.43;;;2.70;;
7665;SDS011;3875;46.562;4.898;2023-01-20T12:10:59;4.40;;;3.03;;
7665;SDS011;3875;46.562;4.898;2023-01-20T12:13:39;4.63;;;3.37;;
7665;SDS011;3875;46.562;4.898;2023-01-20T12:16:43;4.37;;;3.20;;
7665;SDS011;3875;46.562;4.898;2023-01-20T12:19:15;3.67;;;2.67;;
7665;SDS011;3875;46.562;4.898;2023-01-20T12:21:46;3.00;;;2.70;;
7665;SDS011;3875;46.562;4.898;2023-01-20T12:24:25;5.80;;;2.90;;
7665;SDS011;3875;46.562;4.898;2023-01-20T12:27:27;3.40;;;2.23;;
7665;SDS011;3875;46.562;4.898;2023-01-20T12:29:55;3.60;;;2.07;;
7665;SDS011;3875;46.562;4.898;2023-01-20T12:32:25;3.67;;;2.13;;
7665;SDS011;3875;46.562;4.898;2023-01-20T12:34:53;3.80;;;2.50;;
7665;SDS011;3875;46.562;4.898;2023-01-20T12:48:03;5.10;;;2.60;;
7665;SDS011;3875;46.562;4.898;2023-01-20T13:08:21;3.63;;;2.37;;
7665;SDS011;3875;46.562;4.898;2023-01-20T13:19:37;4.57;;;3.50;;
7665;SDS011;3875;46.562;4.898;2023-01-20T13:21:51;8.10;;;4.27;;
7665;SDS011;3875;46.562;4.898;2023-01-20T13:24:19;9.13;;;3.87;;
7665;SDS011;3875;46.562;4.898;2023-01-20T13:26:53;5.13;;;2.73;;
7665;SDS011;3875;46.562;4.898;2023-01-20T13:29:42;3.77;;;2.80;;
7665;SDS011;3875;46.562;4.898;2023-01-20T13:34:52;7.90;;;4.20;;
7665;SDS011;3875;46.562;4.898;2023-01-20T13:39:49;1.40;;;1.30;;
7665;SDS011;3875;46.562;4.898;2023-01-20T13:42:28;4.20;;;1.60;;
7665;SDS011;3875;46.562;4.898;2023-01-20T13:58:14;2.00;;;1.27;;
7665;SDS011;3875;46.562;4.898;2023-01-20T14:01:02;1.97;;;1.20;;
7665;SDS011;3875;46.562;4.898;2023-01-20T14:03:31;2.60;;;1.60;;
7665;SDS011;3875;46.562;4.898;2023-01-20T14:11:43;5.07;;;1.60;;
7665;SDS011;3875;46.562;4.898;2023-01-20T14:14:16;1.70;;;1.60;;
7665;SDS011;3875;46.562;4.898;2023-01-20T14:16:45;6.77;;;1.63;;
7665;SDS011;3875;46.562;4.898;2023-01-20T14:21:38;3.67;;;1.97;;
7665;SDS011;3875;46.562;4.898;2023-01-20T14:24:05;2.70;;;1.60;;
7665;SDS011;3875;46.562;4.898;2023-01-20T14:26:48;3.07;;;1.53;;
7665;SDS011;3875;46.562;4.898;2023-01-20T14:29:15;3.67;;;1.70;;
7665;SDS011;3875;46.562;4.898;2023-01-20T14:31:44;2.97;;;2.00;;
7665;SDS011;3875;46.562;4.898;2023-01-20T14:34:26;2.57;;;1.70;;
7665;SDS011;3875;46.562;4.898;2023-01-20T14:36:57;2.33;;;1.90;;
7665;SDS011;3875;46.562;4.898;2023-01-20T14:39:46;1.70;;;1.60;;
7665;SDS011;3875;46.562;4.898;2023-01-20T14:42:17;1.80;;;1.70;;
7665;SDS011;3875;46.562;4.898;2023-01-20T14:44:51;2.63;;;2.43;;
7665;SDS011;3875;46.562;4.898;2023-01-20T14:47:18;5.83;;;3.73;;
7665;SDS011;3875;46.562;4.898;2023-01-20T14:49:46;7.30;;;4.77;;
7665;SDS011;3875;46.562;4.898;2023-01-20T14:52:20;7.10;;;4.67;;
7665;SDS011;3875;46.562;4.898;2023-01-20T14:54:54;8.33;;;4.77;;
7665;SDS011;3875;46.562;4.898;2023-01-20T15:00:01;5.53;;;4.57;;
7665;SDS011;3875;46.562;4.898;2023-01-20T15:05:30;8.17;;;4.90;;
7665;SDS011;3875;46.562;4.898;2023-01-20T15:21:47;9.67;;;6.57;;
7665;SDS011;3875;46.562;4.898;2023-01-20T15:26:59;17.13;;;10.13;;
7665;SDS011;3875;46.562;4.898;2023-01-20T15:29:27;12.27;;;8.10;;
7665;SDS011;3875;46.562;4.898;2023-01-20T15:31:58;10.97;;;7.43;;
7665;SDS011;3875;46.562;4.898;2023-01-20T15:34:26;12.70;;;8.20;;
7665;SDS011;3875;46.562;4.898;2023-01-20T15:36:52;14.17;;;8.87;;
7665;SDS011;3875;46.562;4.898;2023-01-20T15:39:20;14.57;;;8.70;;
7665;SDS011;3875;46.562;4.898;2023-01-20T15:41:47;12.90;;;7.77;;
7665;SDS011;3875;46.562;4.898;2023-01-20T15:44:23;13.03;;;7.73;;
7665;SDS011;3875;46.562;4.898;2023-01-20T15:46:49;11.07;;;7.47;;
7665;SDS011;3875;46.562;4.898;2023-01-20T15:49:15;10.00;;;7.70;;
7665;SDS011;3875;46.562;4.898;2023-01-20T15:51:42;9.03;;;7.23;;
7665;SDS011;3875;46.562;4.898;2023-01-20T15:54:08;9.80;;;7.20;;
7665;SDS011;3875;46.562;4.898;2023-01-20T15:56:36;10.70;;;7.90;;
7665;SDS011;3875;46.562;4.898;2023-01-20T15:59:10;11.60;;;7.80;;
7665;SDS011;3875;46.562;4.898;2023-01-20T16:01:37;13.67;;;7.70;;
7665;SDS011;3875;46.562;4.898;2023-01-20T16:04:03;9.37;;;7.23;;
7665;SDS011;3875;46.562;4.898;2023-01-20T16:06:29;12.03;;;7.80;;
7665;SDS011;3875;46.562;4.898;2023-01-20T16:08:56;9.80;;;7.43;;
7665;SDS011;3875;46.562;4.898;2023-01-20T16:11:24;12.77;;;9.07;;
7665;SDS011;3875;46.562;4.898;2023-01-20T16:13:50;11.17;;;7.90;;
7665;SDS011;3875;46.562;4.898;2023-01-20T16:16:17;10.87;;;8.27;;
7665;SDS011;3875;46.562;4.898;2023-01-20T16:18:45;11.00;;;8.87;;
7665;SDS011;3875;46.562;4.898;2023-01-20T16:21:12;13.57;;;9.23;;
7665;SDS011;3875;46.562;4.898;2023-01-20T16:23:40;12.07;;;8.73;;
7665;SDS011;3875;46.562;4.898;2023-01-20T16:26:20;15.20;;;8.50;;
7665;SDS011;3875;46.562;4.898;2023-01-20T16:28:48;15.43;;;8.67;;
7665;SDS011;3875;46.562;4.898;2023-01-20T16:31:14;14.97;;;9.67;;
7665;SDS011;3875;46.562;4.898;2023-01-20T16:33:40;13.43;;;9.27;;
7665;SDS011;3875;46.562;4.898;2023-01-20T16:36:13;19.37;;;10.90;;
7665;SDS011;3875;46.562;4.898;2023-01-20T16:38:40;17.83;;;11.33;;
7665;SDS011;3875;46.562;4.898;2023-01-20T16:41:22;16.93;;;10.20;;
7665;SDS011;3875;46.562;4.898;2023-01-20T16:43:53;17.03;;;11.27;;
7665;SDS011;3875;46.562;4.898;2023-01-20T16:46:23;18.27;;;11.67;;
7665;SDS011;3875;46.562;4.898;2023-01-20T16:48:51;16.27;;;11.07;;
7665;SDS011;3875;46.562;4.898;2023-01-20T16:51:21;14.30;;;9.63;;
7665;SDS011;3875;46.562;4.898;2023-01-20T16:53:49;13.77;;;9.23;;
7665;SDS011;3875;46.562;4.898;2023-01-20T16:56:16;14.10;;;9.47;;
7665;SDS011;3875;46.562;4.898;2023-01-20T16:58:47;13.87;;;9.47;;
7665;SDS011;3875;46.562;4.898;2023-01-20T17:01:14;15.13;;;10.10;;
7665;SDS011;3875;46.562;4.898;2023-01-20T17:03:45;12.60;;;8.67;;
7665;SDS011;3875;46.562;4.898;2023-01-20T17:06:11;18.80;;;9.70;;
7665;SDS011;3875;46.562;4.898;2023-01-20T17:08:44;14.70;;;9.80;;
7665;SDS011;3875;46.562;4.898;2023-01-20T17:11:17;15.00;;;9.87;;
7665;SDS011;3875;46.562;4.898;2023-01-20T17:13:46;15.10;;;9.90;;
7665;SDS011;3875;46.562;4.898;2023-01-20T17:16:12;17.17;;;10.70;;
7665;SDS011;3875;46.562;4.898;2023-01-20T17:18:38;15.03;;;10.03;;
7665;SDS011;3875;46.562;4.898;2023-01-20T17:21:10;14.17;;;10.30;;
7665;SDS011;3875;46.562;4.898;2023-01-20T17:23:37;16.63;;;10.07;;
7665;SDS011;3875;46.562;4.898;2023-01-20T17:26:03;13.87;;;9.73;;
7665;SDS011;3875;46.562;4.898;2023-01-20T17:28:31;15.77;;;10.20;;
7665;SDS011;3875;46.562;4.898;2023-01-20T17:31:03;14.80;;;10.13;;
7665;SDS011;3875;46.562;4.898;2023-01-20T17:33:30;15.53;;;9.53;;
7665;SDS011;3875;46.562;4.898;2023-01-20T17:35:59;15.40;;;9.10;;
7665;SDS011;3875;46.562;4.898;2023-01-20T17:38:27;8.40;;;6.33;;
7665;SDS011;3875;46.562;4.898;2023-01-20T17:40:58;16.43;;;6.47;;